NCAR-RAP Real-Time Weather Data

Output produced by METARs form (21 May 2019  10:49 UTC)
found at http://weather.rap.ucar.edu/surface/
 
RJFO 211000Z 32008KT CAVOK 20/03 Q1006
RJFO 210900Z 33013KT 9999 FEW040 BKN/// 21/05 Q1005
RJFO 210800Z 34013KT 9999 FEW040 SCT/// 23/06 Q1005
RJFO 210700Z 32010KT 270V340 9999 FEW030 SCT/// 24/04 Q1005
RJFO 210600Z 28011KT CAVOK 24/06 Q1005
RJFO 210500Z 32012KT 9999 FEW030 SCT/// 24/07 Q1005
RJFO 210400Z 32005KT 230V010 9999 FEW025 SCT/// 23/10 Q1005
RJFO 210300Z 35009KT 9999 FEW025 SCT/// 22/08 Q1006
RJFO 210236Z 27008KT 9999 FEW025 BKN/// 22/10 Q1006 RMK 1CU025 A2972
RJFO 210200Z 34011KT 9999 FEW025 BKN/// 21/09 Q1006
RJFO 210100Z 34013KT 9999 FEW025 SCT/// 20/10 Q1006
RJFO 210000Z 32014KT 9999 FEW025 BKN/// 19/10 Q1006
RJFO 202300Z 33006KT 290V010 9999 FEW030 BKN/// 18/11 Q1006
RJFO 202200Z 31003KT 260V340 9999 FEW030 BKN/// 16/11 Q1006
RJFO 201300Z 32009KT 9999 -SHRA FEW002 SCT015 BKN040 18/16 Q1004
RJFO 201200Z 34005KT 310V010 9999 -SHRA FEW002 SCT009 BKN015 19/19 Q1004
RJFO 201135Z 01007KT 9999 -RA PRFG FEW001 SCT007 BKN009 19/19 Q1004 RMK 1ST001 3ST007 5ST009 A2965 4000W-NW FG W-NW
RJFO 201100Z 01008KT 7000 -RA PRFG FEW001 SCT050 BKN080 18/18 Q1003
RJFO 201000Z 03004KT 9999 FEW001 SCT050 BKN070 18/18 Q1003
RJFO 200900Z 10003KT 050V180 9000 -SHRA FEW005 SCT020 BKN040 19/19 Q1002
RJFO 200828Z 31007KT 280V340 6000 SHRA FEW002 SCT005 BKN010 19/19 Q1002 RMK 1ST002 3ST005 6CU010 A2961 MOD TURB OBS AT 0815Z FM 15NM NE TO 10NM E BTN 5000FT AND 3000FT IN DES B738
RJFO 200808Z 32010KT 280V340 1500 R01/P1800N +SHRA BR FEW001 SCT004 BKN010 20/19 Q1003 RMK 1ST001 3ST004 6CU010 A2962 RI++
RJFO 200806Z 32010KT 280V350 2000 +SHRA BR FEW001 SCT004 BKN010 20/19 Q1003 RMK 1ST001 3ST004 6CU010 A2962
RJFO 200800Z 32011KT 290V350 3000 SHRA BR FEW001 SCT004 BKN010 20/20 Q1003
RJFO 200746Z 32008KT 270V010 4000 SHRA BR FEW001 SCT003 BKN009 21/21 Q1002 RMK 1ST001 3ST003 6ST009 A2961
RJFO 200741Z 31011KT 280V350 5000 +SHRA BR FEW001 BKN003 BKN009 21/21 Q1002 RMK 1ST001 5ST003 6ST009 A2961
RJFO 200736Z 27010KT 5000 SHRA BR FEW002 BKN004 BKN009 21/21 Q1002 RMK 1ST002 5ST004 6ST009 A2961
RJFO 200719Z 17005KT 130V200 3000 -SHRA BR FEW002 BKN004 BKN009 20/20 Q1002 RMK 1ST002 5ST004 6ST009 A2960
RJFO 200700Z 15011KT 3000 -SHRA BR FEW002 SCT025 BKN035 20/20 Q1002
RJFO 200625Z 14013KT 3000 -SHRA BR FEW003 SCT020 BKN025 20/20 Q1003 RMK 1ST003 4CU020 6CU025 A2962
RJFO 200600Z 14014KT 5000 BR FEW004 SCT020 BKN035 20/20 Q1003
RJFO 200500Z 14015KT 5000 BR FEW002 SCT015 BKN030 20/20 Q1003
RJFO 200409Z 13016KT 5000 -SHRA BR FEW003 SCT015 BKN025 20/20 Q1004 RMK 1ST003 4CU015 6CU025 A2966
RJFO 200400Z 13019KT 2000 -SHRA BR FEW002 SCT015 BKN025 20/20 Q1004
RJFO 200347Z 14018G28KT 1500 R01/1000VP1800D -SHRA BR FEW002 SCT010 BKN025 21/21 Q1004 RMK 1ST002 4ST010 6CU025 A2967
RJFO 200344Z 15016KT 1500 R01/1200VP1800D -SHRA BR FEW002 SCT010 BKN025 21/21 Q1004 RMK 1ST002 4ST010 6CU025 A2967
RJFO 200318Z 15014KT 4000 -SHRA BR FEW003 SCT015 BKN030 21/21 Q1005 RMK 1ST003 4CU015 6CU030 A2969
RJFO 200300Z 14017KT 2000 -SHRA BR FEW003 SCT025 BKN035 21/21 Q1005
RJFO 200230Z 16014KT 4000 -SHRA BR FEW005 SCT025 BKN040 21/21 Q1005 RMK 1ST005 3CU025 6CU040 A2970
RJFO 200200Z 15019KT 3000 -SHRA BR FEW003 SCT009 BKN015 20/20 Q1006
RJFO 200122Z 14013KT 3000 -SHRA BR FEW002 SCT004 BKN005 19/19 Q1006 RMK 1ST002 4ST004 6ST005 A2972
RJFO 200100Z 10003KT 030V160 3000 -SHRA BR FEW002 BKN004 BKN005 18/18 Q1006
RJFO 200045Z 07003KT 040V110 1500 R01/P1800N -SHRA BR FEW002 SCT004 BKN005 17/17 Q1006 RMK 2ST002 4ST004 6ST005 A2972
RJFO 200035Z 04003KT 010V080 2500 -SHRA BR FEW002 SCT005 BKN006 17/17 Q1006 RMK 1ST002 4ST005 6ST006 A2972
RJFO 200012Z 06003KT 030V120 2000 SHRA BR FEW001 SCT006 BKN007 18/18 Q1007 RMK 1ST001 4ST006 6ST007 A2974
RJFO 200007Z 05005KT 2000 -SHRA BR FEW001 SCT003 BKN006 18/18 Q1007 RMK 1ST001 3ST003 5ST006 A2974
RJFO 200000Z 04005KT 010V080 3500 -SHRA BR FEW001 SCT002 BKN004 18/18 Q1007
RJFO 192349Z VRB02KT 4000 -SHRA BR FEW001 SCT002 BKN005 18/18 Q1007 RMK 1ST001 3ST002 5ST005 A2974
RJFO 192340Z VRB01KT 3000 -SHRA BR FEW001 SCT003 BKN005 18/18 Q1007 RMK 1ST001 3ST003 5ST005 A2974
RJFO 192330Z VRB02KT 1800 SHRA BR FEW002 SCT004 BKN005 18/18 Q1007 RMK 1ST002 3ST004 5ST005 A2974
RJFO 192320Z 15003KT 2000 -SHRA BR FEW004 SCT005 BKN007 18/18 Q1007 RMK 1ST004 3ST005 5ST007 A2974
RJFO 192300Z 17004KT 3000 -SHRA BR FEW004 SCT013 BKN020 18/18 Q1007
RJFO 192200Z 22004KT 3000 -SHRA BR FEW005 BKN020 BKN030 19/19 Q1007
RJFO 191300Z 16010KT 9999 FEW020 BKN045 BKN120 19/18 Q1012
RJFO 191200Z 16007KT 9999 -SHRA FEW020 SCT040 BKN110 18/18 Q1012
RJFO 191123Z 14010KT 7000 -SHRA FEW008 FEW020CB SCT030 BKN040 18/18 Q1012 RMK 1ST008 1CB020 4CU030 6CU040 A2989 CB 25KM SE MOV E
RJFO 191100Z 15008KT 4000 TSRA BR FEW015 FEW020CB SCT030 BKN040 18/18 Q1012
RJFO 191000Z 16005KT 5000 -SHRA BR FEW005 SCT030 BKN040 19/18 Q1012
RJFO 190944Z 17007KT 3500 SHRA BR FEW015 SCT020 BKN040 19/18 Q1012 RMK 1CU015 3CU020 6CU040 A2989
RJFO 190900Z 18005KT 9999 -SHRA FEW020 SCT030 BKN040 19/18 Q1011
RJFO 190800Z 14013KT 9999 FEW015 SCT030 BKN035 20/18 Q1012
RJFO 190700Z 13014KT 9999 -SHRA FEW025 BKN035 BKN050 19/18 Q1012
RJFO 190600Z 15005KT 9999 FEW005 BKN040 BKN050 19/18 Q1012
RJFO 190500Z 16009KT 9999 -RA FEW005 BKN050 BKN120 19/18 Q1013
RJFO 190400Z 17007KT 9999 FEW005 SCT025 BKN035 20/19 Q1013
RJFO 190300Z 17006KT 6000 -SHRA FEW005 SCT025 BKN035 19/19 Q1014
RJFO 190200Z 22003KT 190V250 6000 -SHRA FEW009 SCT025 BKN035 19/19 Q1014
RJFO 190100Z 12003KT 9999 -RA FEW015 SCT035 BKN050 19/17 Q1014
RJFO 190000Z 13006KT 9999 FEW025 SCT040 BKN050 19/17 Q1014
RJFO 182300Z 15004KT 9999 FEW020 SCT035 BKN045 19/17 Q1014